sensor_id;sensor_type;location;lat;lon;timestamp;P1;durP1;ratioP1;P2;durP2;ratioP2
22697;SDS011;11516;51.612;7.510;2023-02-01T00:00:17;29.90;;;15.40;;
22697;SDS011;11516;51.612;7.510;2023-02-01T00:02:43;35.53;;;15.18;;
22697;SDS011;11516;51.612;7.510;2023-02-01T00:05:09;32.67;;;14.80;;
22697;SDS011;11516;51.612;7.510;2023-02-01T00:07:35;30.52;;;14.43;;
22697;SDS011;11516;51.612;7.510;2023-02-01T00:10:01;29.45;;;13.98;;
22697;SDS011;11516;51.612;7.510;2023-02-01T00:12:28;31.15;;;14.32;;
22697;SDS011;11516;51.612;7.510;2023-02-01T00:14:54;31.23;;;13.97;;
22697;SDS011;11516;51.612;7.510;2023-02-01T00:17:19;28.77;;;13.43;;
22697;SDS011;11516;51.612;7.510;2023-02-01T00:19:45;28.58;;;13.82;;
22697;SDS011;11516;51.612;7.510;2023-02-01T00:22:10;25.87;;;13.30;;
22697;SDS011;11516;51.612;7.510;2023-02-01T00:24:36;30.03;;;14.60;;
22697;SDS011;11516;51.612;7.510;2023-02-01T00:27:01;24.17;;;12.90;;
22697;SDS011;11516;51.612;7.510;2023-02-01T00:29:27;32.15;;;14.73;;
22697;SDS011;11516;51.612;7.510;2023-02-01T00:31:52;27.57;;;13.23;;
22697;SDS011;11516;51.612;7.510;2023-02-01T00:34:18;28.20;;;13.47;;
22697;SDS011;11516;51.612;7.510;2023-02-01T00:36:45;22.58;;;11.55;;
22697;SDS011;11516;51.612;7.510;2023-02-01T00:39:11;27.52;;;12.23;;
22697;SDS011;11516;51.612;7.510;2023-02-01T00:41:37;20.35;;;11.02;;
22697;SDS011;11516;51.612;7.510;2023-02-01T00:44:03;26.60;;;11.60;;
22697;SDS011;11516;51.612;7.510;2023-02-01T00:46:29;23.95;;;11.93;;
22697;SDS011;11516;51.612;7.510;2023-02-01T00:48:55;27.43;;;11.43;;
22697;SDS011;11516;51.612;7.510;2023-02-01T00:51:21;26.30;;;11.18;;
22697;SDS011;11516;51.612;7.510;2023-02-01T00:53:48;28.10;;;10.50;;
22697;SDS011;11516;51.612;7.510;2023-02-01T00:56:15;27.80;;;10.60;;
22697;SDS011;11516;51.612;7.510;2023-02-01T00:58:41;26.52;;;11.07;;
22697;SDS011;11516;51.612;7.510;2023-02-01T01:01:08;24.73;;;8.88;;
22697;SDS011;11516;51.612;7.510;2023-02-01T01:03:37;26.58;;;8.15;;
22697;SDS011;11516;51.612;7.510;2023-02-01T01:06:05;26.73;;;8.70;;
22697;SDS011;11516;51.612;7.510;2023-02-01T01:08:37;19.75;;;8.07;;
22697;SDS011;11516;51.612;7.510;2023-02-01T01:11:22;22.25;;;8.18;;
22697;SDS011;11516;51.612;7.510;2023-02-01T01:13:49;21.27;;;7.75;;
22697;SDS011;11516;51.612;7.510;2023-02-01T01:16:16;19.95;;;6.28;;
22697;SDS011;11516;51.612;7.510;2023-02-01T01:18:43;19.15;;;6.68;;
22697;SDS011;11516;51.612;7.510;2023-02-01T01:21:10;14.52;;;5.78;;
22697;SDS011;11516;51.612;7.510;2023-02-01T01:23:38;19.63;;;5.60;;
22697;SDS011;11516;51.612;7.510;2023-02-01T01:26:04;16.63;;;5.28;;
22697;SDS011;11516;51.612;7.510;2023-02-01T01:28:34;16.52;;;5.25;;
22697;SDS011;11516;51.612;7.510;2023-02-01T01:31:00;21.60;;;5.73;;
22697;SDS011;11516;51.612;7.510;2023-02-01T01:33:26;18.08;;;5.40;;
22697;SDS011;11516;51.612;7.510;2023-02-01T01:35:51;15.37;;;4.50;;
22697;SDS011;11516;51.612;7.510;2023-02-01T01:38:17;16.13;;;4.75;;
22697;SDS011;11516;51.612;7.510;2023-02-01T01:40:46;16.75;;;5.40;;
22697;SDS011;11516;51.612;7.510;2023-02-01T01:43:15;17.47;;;5.70;;
22697;SDS011;11516;51.612;7.510;2023-02-01T01:45:42;15.65;;;5.60;;
22697;SDS011;11516;51.612;7.510;2023-02-01T01:51:09;15.73;;;4.60;;
22697;SDS011;11516;51.612;7.510;2023-02-01T01:53:42;13.18;;;4.80;;
22697;SDS011;11516;51.612;7.510;2023-02-01T01:56:11;18.10;;;5.45;;
22697;SDS011;11516;51.612;7.510;2023-02-01T01:58:37;15.77;;;4.68;;
22697;SDS011;11516;51.612;7.510;2023-02-01T02:01:04;18.45;;;5.30;;
22697;SDS011;11516;51.612;7.510;2023-02-01T02:05:59;17.17;;;5.50;;
22697;SDS011;11516;51.612;7.510;2023-02-01T02:08:36;13.48;;;5.38;;
22697;SDS011;11516;51.612;7.510;2023-02-01T02:11:02;11.90;;;4.60;;
22697;SDS011;11516;51.612;7.510;2023-02-01T02:13:30;18.37;;;5.33;;
22697;SDS011;11516;51.612;7.510;2023-02-01T02:35:51;16.63;;;5.00;;
22697;SDS011;11516;51.612;7.510;2023-02-01T02:38:31;17.30;;;5.27;;
22697;SDS011;11516;51.612;7.510;2023-02-01T02:41:19;18.75;;;5.70;;
22697;SDS011;11516;51.612;7.510;2023-02-01T02:44:30;21.48;;;6.03;;
22697;SDS011;11516;51.612;7.510;2023-02-01T02:47:18;17.35;;;5.32;;
22697;SDS011;11516;51.612;7.510;2023-02-01T02:50:11;16.42;;;5.40;;
22697;SDS011;11516;51.612;7.510;2023-02-01T02:56:05;18.10;;;5.50;;
22697;SDS011;11516;51.612;7.510;2023-02-01T02:58:50;18.70;;;5.60;;
22697;SDS011;11516;51.612;7.510;2023-02-01T03:01:35;19.67;;;5.88;;
22697;SDS011;11516;51.612;7.510;2023-02-01T03:04:22;16.03;;;4.80;;
22697;SDS011;11516;51.612;7.510;2023-02-01T03:06:48;19.25;;;5.50;;
22697;SDS011;11516;51.612;7.510;2023-02-01T03:09:19;15.50;;;5.05;;
22697;SDS011;11516;51.612;7.510;2023-02-01T03:11:57;16.48;;;5.95;;
22697;SDS011;11516;51.612;7.510;2023-02-01T03:14:49;16.20;;;5.57;;
22697;SDS011;11516;51.612;7.510;2023-02-01T03:17:21;23.48;;;6.32;;
22697;SDS011;11516;51.612;7.510;2023-02-01T03:19:52;15.80;;;5.00;;
22697;SDS011;11516;51.612;7.510;2023-02-01T03:22:20;17.67;;;5.57;;
22697;SDS011;11516;51.612;7.510;2023-02-01T03:24:56;17.05;;;5.25;;
22697;SDS011;11516;51.612;7.510;2023-02-01T03:27:29;17.25;;;5.30;;
22697;SDS011;11516;51.612;7.510;2023-02-01T03:30:11;15.55;;;4.47;;
22697;SDS011;11516;51.612;7.510;2023-02-01T03:32:46;15.10;;;5.07;;
22697;SDS011;11516;51.612;7.510;2023-02-01T03:35:26;17.92;;;5.55;;
22697;SDS011;11516;51.612;7.510;2023-02-01T03:38:18;17.92;;;5.20;;
22697;SDS011;11516;51.612;7.510;2023-02-01T03:41:41;16.52;;;4.70;;
22697;SDS011;11516;51.612;7.510;2023-02-01T03:43:49;17.53;;;5.40;;
22697;SDS011;11516;51.612;7.510;2023-02-01T03:46:35;20.20;;;5.35;;
22697;SDS011;11516;51.612;7.510;2023-02-01T03:49:05;19.52;;;5.00;;
22697;SDS011;11516;51.612;7.510;2023-02-01T03:51:33;20.42;;;5.70;;
22697;SDS011;11516;51.612;7.510;2023-02-01T03:54:02;16.85;;;4.75;;
22697;SDS011;11516;51.612;7.510;2023-02-01T03:56:31;18.88;;;6.07;;
22697;SDS011;11516;51.612;7.510;2023-02-01T03:59:01;22.00;;;5.45;;
22697;SDS011;11516;51.612;7.510;2023-02-01T04:01:27;15.90;;;4.90;;
22697;SDS011;11516;51.612;7.510;2023-02-01T04:03:54;15.10;;;4.32;;
22697;SDS011;11516;51.612;7.510;2023-02-01T04:06:20;15.57;;;4.93;;
22697;SDS011;11516;51.612;7.510;2023-02-01T04:08:46;19.07;;;5.50;;
22697;SDS011;11516;51.612;7.510;2023-02-01T04:11:12;16.35;;;5.30;;
22697;SDS011;11516;51.612;7.510;2023-02-01T04:13:37;17.83;;;5.18;;
22697;SDS011;11516;51.612;7.510;2023-02-01T04:16:03;15.53;;;4.30;;
22697;SDS011;11516;51.612;7.510;2023-02-01T04:18:29;14.80;;;4.55;;
22697;SDS011;11516;51.612;7.510;2023-02-01T04:20:54;19.57;;;5.10;;
22697;SDS011;11516;51.612;7.510;2023-02-01T04:23:20;18.93;;;5.27;;
22697;SDS011;11516;51.612;7.510;2023-02-01T04:25:45;18.80;;;4.85;;
22697;SDS011;11516;51.612;7.510;2023-02-01T04:28:11;19.27;;;4.82;;
22697;SDS011;11516;51.612;7.510;2023-02-01T04:30:37;17.43;;;5.10;;
22697;SDS011;11516;51.612;7.510;2023-02-01T04:33:02;19.88;;;5.10;;
22697;SDS011;11516;51.612;7.510;2023-02-01T04:35:31;21.83;;;5.53;;
22697;SDS011;11516;51.612;7.510;2023-02-01T04:37:57;16.63;;;4.78;;
22697;SDS011;11516;51.612;7.510;2023-02-01T04:40:22;19.93;;;5.60;;
22697;SDS011;11516;51.612;7.510;2023-02-01T04:42:48;19.70;;;5.37;;
22697;SDS011;11516;51.612;7.510;2023-02-01T04:45:13;20.03;;;4.73;;
22697;SDS011;11516;51.612;7.510;2023-02-01T04:47:39;20.52;;;5.57;;
22697;SDS011;11516;51.612;7.510;2023-02-01T04:50:04;15.33;;;5.27;;
22697;SDS011;11516;51.612;7.510;2023-02-01T04:52:31;17.80;;;4.55;;
22697;SDS011;11516;51.612;7.510;2023-02-01T04:54:56;18.38;;;4.68;;
22697;SDS011;11516;51.612;7.510;2023-02-01T04:57:24;17.67;;;5.22;;
22697;SDS011;11516;51.612;7.510;2023-02-01T04:59:49;17.50;;;5.73;;
22697;SDS011;11516;51.612;7.510;2023-02-01T05:02:15;18.83;;;5.37;;
22697;SDS011;11516;51.612;7.510;2023-02-01T05:04:40;16.70;;;5.15;;
22697;SDS011;11516;51.612;7.510;2023-02-01T05:07:06;17.30;;;5.20;;
22697;SDS011;11516;51.612;7.510;2023-02-01T05:09:31;16.57;;;4.27;;
22697;SDS011;11516;51.612;7.510;2023-02-01T05:11:57;16.67;;;4.63;;
22697;SDS011;11516;51.612;7.510;2023-02-01T05:14:41;20.08;;;5.38;;
22697;SDS011;11516;51.612;7.510;2023-02-01T05:17:07;16.87;;;6.10;;
22697;SDS011;11516;51.612;7.510;2023-02-01T05:19:33;19.20;;;6.37;;
22697;SDS011;11516;51.612;7.510;2023-02-01T05:21:58;20.33;;;6.43;;
22697;SDS011;11516;51.612;7.510;2023-02-01T05:24:24;18.85;;;4.97;;
22697;SDS011;11516;51.612;7.510;2023-02-01T05:26:49;19.33;;;5.40;;
22697;SDS011;11516;51.612;7.510;2023-02-01T05:29:15;19.23;;;5.17;;
22697;SDS011;11516;51.612;7.510;2023-02-01T05:31:42;19.08;;;5.40;;
22697;SDS011;11516;51.612;7.510;2023-02-01T05:34:09;22.75;;;6.13;;
22697;SDS011;11516;51.612;7.510;2023-02-01T05:36:36;19.85;;;4.57;;
22697;SDS011;11516;51.612;7.510;2023-02-01T05:39:01;20.90;;;5.97;;
22697;SDS011;11516;51.612;7.510;2023-02-01T05:41:27;19.25;;;4.80;;
22697;SDS011;11516;51.612;7.510;2023-02-01T05:43:53;19.45;;;5.03;;
22697;SDS011;11516;51.612;7.510;2023-02-01T05:46:18;20.23;;;5.10;;
22697;SDS011;11516;51.612;7.510;2023-02-01T05:48:44;17.90;;;5.35;;
22697;SDS011;11516;51.612;7.510;2023-02-01T05:51:10;18.73;;;5.20;;
22697;SDS011;11516;51.612;7.510;2023-02-01T05:53:36;20.48;;;6.00;;
22697;SDS011;11516;51.612;7.510;2023-02-01T05:56:01;18.07;;;5.23;;
22697;SDS011;11516;51.612;7.510;2023-02-01T05:58:27;19.63;;;5.60;;
22697;SDS011;11516;51.612;7.510;2023-02-01T06:00:53;18.45;;;4.95;;
22697;SDS011;11516;51.612;7.510;2023-02-01T06:03:20;17.80;;;6.03;;
22697;SDS011;11516;51.612;7.510;2023-02-01T06:05:46;19.08;;;5.90;;
22697;SDS011;11516;51.612;7.510;2023-02-01T06:08:13;19.15;;;5.72;;
22697;SDS011;11516;51.612;7.510;2023-02-01T06:10:39;20.95;;;6.10;;
22697;SDS011;11516;51.612;7.510;2023-02-01T06:13:04;19.57;;;6.20;;
22697;SDS011;11516;51.612;7.510;2023-02-01T06:15:30;21.45;;;5.95;;
22697;SDS011;11516;51.612;7.510;2023-02-01T06:17:56;19.27;;;5.75;;
22697;SDS011;11516;51.612;7.510;2023-02-01T06:20:22;22.05;;;5.70;;
22697;SDS011;11516;51.612;7.510;2023-02-01T06:22:47;19.80;;;5.40;;
22697;SDS011;11516;51.612;7.510;2023-02-01T06:25:13;17.52;;;4.93;;
22697;SDS011;11516;51.612;7.510;2023-02-01T06:27:39;16.43;;;5.53;;
22697;SDS011;11516;51.612;7.510;2023-02-01T06:30:05;17.98;;;5.55;;
22697;SDS011;11516;51.612;7.510;2023-02-01T06:32:31;20.27;;;5.40;;
22697;SDS011;11516;51.612;7.510;2023-02-01T06:34:57;20.85;;;4.90;;
22697;SDS011;11516;51.612;7.510;2023-02-01T06:37:23;17.63;;;5.43;;
22697;SDS011;11516;51.612;7.510;2023-02-01T06:39:50;24.38;;;5.47;;
22697;SDS011;11516;51.612;7.510;2023-02-01T06:42:16;18.05;;;4.93;;
22697;SDS011;11516;51.612;7.510;2023-02-01T06:44:42;19.90;;;5.03;;
22697;SDS011;11516;51.612;7.510;2023-02-01T06:47:07;20.75;;;4.93;;
22697;SDS011;11516;51.612;7.510;2023-02-01T06:49:33;19.83;;;5.60;;
22697;SDS011;11516;51.612;7.510;2023-02-01T06:51:59;17.50;;;5.25;;
22697;SDS011;11516;51.612;7.510;2023-02-01T06:54:27;20.27;;;5.90;;
22697;SDS011;11516;51.612;7.510;2023-02-01T06:59:18;22.03;;;5.37;;
22697;SDS011;11516;51.612;7.510;2023-02-01T07:01:44;19.20;;;5.20;;
22697;SDS011;11516;51.612;7.510;2023-02-01T07:04:10;19.88;;;5.82;;
22697;SDS011;11516;51.612;7.510;2023-02-01T07:06:39;23.50;;;5.70;;
22697;SDS011;11516;51.612;7.510;2023-02-01T07:09:04;21.70;;;5.50;;
22697;SDS011;11516;51.612;7.510;2023-02-01T07:11:30;20.83;;;4.97;;
22697;SDS011;11516;51.612;7.510;2023-02-01T07:13:56;18.90;;;5.13;;
22697;SDS011;11516;51.612;7.510;2023-02-01T07:16:22;19.35;;;5.75;;
22697;SDS011;11516;51.612;7.510;2023-02-01T07:18:49;19.13;;;4.83;;
22697;SDS011;11516;51.612;7.510;2023-02-01T07:21:16;21.73;;;5.20;;
22697;SDS011;11516;51.612;7.510;2023-02-01T07:23:41;20.40;;;5.30;;
22697;SDS011;11516;51.612;7.510;2023-02-01T07:26:09;14.47;;;4.93;;
22697;SDS011;11516;51.612;7.510;2023-02-01T07:28:37;18.52;;;5.32;;
22697;SDS011;11516;51.612;7.510;2023-02-01T07:31:06;23.73;;;5.73;;
22697;SDS011;11516;51.612;7.510;2023-02-01T07:33:33;19.95;;;5.93;;
22697;SDS011;11516;51.612;7.510;2023-02-01T07:36:00;19.17;;;5.73;;
22697;SDS011;11516;51.612;7.510;2023-02-01T07:38:27;20.15;;;5.75;;
22697;SDS011;11516;51.612;7.510;2023-02-01T07:40:57;17.58;;;5.32;;
22697;SDS011;11516;51.612;7.510;2023-02-01T07:43:24;18.90;;;5.38;;
22697;SDS011;11516;51.612;7.510;2023-02-01T07:45:50;22.92;;;5.78;;
22697;SDS011;11516;51.612;7.510;2023-02-01T07:48:17;21.25;;;5.63;;
22697;SDS011;11516;51.612;7.510;2023-02-01T07:50:43;20.67;;;6.13;;
22697;SDS011;11516;51.612;7.510;2023-02-01T07:53:08;21.45;;;5.65;;
22697;SDS011;11516;51.612;7.510;2023-02-01T07:55:34;21.00;;;7.10;;
22697;SDS011;11516;51.612;7.510;2023-02-01T07:58:02;24.55;;;7.40;;
22697;SDS011;11516;51.612;7.510;2023-02-01T08:00:28;16.13;;;5.10;;
22697;SDS011;11516;51.612;7.510;2023-02-01T08:03:12;18.73;;;5.25;;
22697;SDS011;11516;51.612;7.510;2023-02-01T08:05:38;26.37;;;5.93;;
22697;SDS011;11516;51.612;7.510;2023-02-01T08:08:03;20.60;;;5.87;;
22697;SDS011;11516;51.612;7.510;2023-02-01T08:10:29;19.02;;;5.57;;
22697;SDS011;11516;51.612;7.510;2023-02-01T08:12:57;16.83;;;5.33;;
22697;SDS011;11516;51.612;7.510;2023-02-01T08:15:24;22.73;;;6.35;;
22697;SDS011;11516;51.612;7.510;2023-02-01T08:17:51;17.67;;;5.60;;
22697;SDS011;11516;51.612;7.510;2023-02-01T08:20:17;20.83;;;6.67;;
22697;SDS011;11516;51.612;7.510;2023-02-01T08:22:43;21.35;;;5.97;;
22697;SDS011;11516;51.612;7.510;2023-02-01T08:25:09;15.43;;;4.80;;
22697;SDS011;11516;51.612;7.510;2023-02-01T08:27:36;28.45;;;6.80;;
22697;SDS011;11516;51.612;7.510;2023-02-01T08:30:02;19.05;;;5.47;;
22697;SDS011;11516;51.612;7.510;2023-02-01T08:32:29;18.25;;;5.38;;
22697;SDS011;11516;51.612;7.510;2023-02-01T08:34:55;22.02;;;5.82;;
22697;SDS011;11516;51.612;7.510;2023-02-01T08:37:20;19.73;;;6.00;;
22697;SDS011;11516;51.612;7.510;2023-02-01T08:39:47;20.08;;;5.80;;
22697;SDS011;11516;51.612;7.510;2023-02-01T08:42:15;20.20;;;6.20;;
22697;SDS011;11516;51.612;7.510;2023-02-01T08:44:59;21.77;;;6.72;;
22697;SDS011;11516;51.612;7.510;2023-02-01T08:47:24;22.03;;;6.77;;
22697;SDS011;11516;51.612;7.510;2023-02-01T08:49:50;23.93;;;7.20;;
22697;SDS011;11516;51.612;7.510;2023-02-01T08:52:16;20.85;;;6.55;;
22697;SDS011;11516;51.612;7.510;2023-02-01T08:54:42;19.52;;;6.22;;
22697;SDS011;11516;51.612;7.510;2023-02-01T08:57:07;21.30;;;6.85;;
22697;SDS011;11516;51.612;7.510;2023-02-01T08:59:34;22.23;;;5.93;;
22697;SDS011;11516;51.612;7.510;2023-02-01T09:02:00;21.67;;;6.13;;
22697;SDS011;11516;51.612;7.510;2023-02-01T09:04:25;19.67;;;6.10;;
22697;SDS011;11516;51.612;7.510;2023-02-01T09:06:51;25.27;;;6.13;;
22697;SDS011;11516;51.612;7.510;2023-02-01T09:09:17;25.52;;;6.90;;
22697;SDS011;11516;51.612;7.510;2023-02-01T09:11:42;20.03;;;6.57;;
22697;SDS011;11516;51.612;7.510;2023-02-01T09:14:08;19.67;;;6.17;;
22697;SDS011;11516;51.612;7.510;2023-02-01T09:16:33;23.23;;;6.90;;
22697;SDS011;11516;51.612;7.510;2023-02-01T09:18:59;22.75;;;5.55;;
22697;SDS011;11516;51.612;7.510;2023-02-01T09:21:24;17.93;;;6.07;;
22697;SDS011;11516;51.612;7.510;2023-02-01T09:23:50;17.40;;;5.80;;
22697;SDS011;11516;51.612;7.510;2023-02-01T09:26:16;17.63;;;5.80;;
22697;SDS011;11516;51.612;7.510;2023-02-01T09:28:42;21.17;;;6.18;;
22697;SDS011;11516;51.612;7.510;2023-02-01T09:31:08;24.50;;;6.53;;
22697;SDS011;11516;51.612;7.510;2023-02-01T09:33:33;22.90;;;6.53;;
22697;SDS011;11516;51.612;7.510;2023-02-01T09:36:01;19.33;;;6.23;;
22697;SDS011;11516;51.612;7.510;2023-02-01T09:38:29;22.08;;;5.70;;
22697;SDS011;11516;51.612;7.510;2023-02-01T09:40:55;24.60;;;6.50;;
22697;SDS011;11516;51.612;7.510;2023-02-01T09:48:33;22.83;;;6.28;;
22697;SDS011;11516;51.612;7.510;2023-02-01T09:51:05;20.75;;;6.63;;
22697;SDS011;11516;51.612;7.510;2023-02-01T09:53:38;19.55;;;6.30;;
22697;SDS011;11516;51.612;7.510;2023-02-01T09:56:14;22.75;;;5.47;;
22697;SDS011;11516;51.612;7.510;2023-02-01T09:58:48;21.48;;;6.45;;
22697;SDS011;11516;51.612;7.510;2023-02-01T10:01:26;20.30;;;7.15;;
22697;SDS011;11516;51.612;7.510;2023-02-01T10:04:15;20.70;;;5.75;;
22697;SDS011;11516;51.612;7.510;2023-02-01T10:07:00;18.58;;;6.15;;
22697;SDS011;11516;51.612;7.510;2023-02-01T10:21:04;20.08;;;6.60;;
22697;SDS011;11516;51.612;7.510;2023-02-01T10:29:00;18.63;;;6.63;;
22697;SDS011;11516;51.612;7.510;2023-02-01T10:31:28;21.45;;;8.45;;
22697;SDS011;11516;51.612;7.510;2023-02-01T10:34:07;17.42;;;7.60;;
22697;SDS011;11516;51.612;7.510;2023-02-01T10:39:19;20.80;;;6.37;;
22697;SDS011;11516;51.612;7.510;2023-02-01T10:41:45;21.05;;;7.07;;
22697;SDS011;11516;51.612;7.510;2023-02-01T10:44:14;16.55;;;6.63;;
22697;SDS011;11516;51.612;7.510;2023-02-01T10:46:44;18.35;;;7.15;;
22697;SDS011;11516;51.612;7.510;2023-02-01T10:49:12;21.10;;;7.13;;
22697;SDS011;11516;51.612;7.510;2023-02-01T10:52:06;23.48;;;6.80;;
22697;SDS011;11516;51.612;7.510;2023-02-01T10:54:41;21.52;;;7.07;;
22697;SDS011;11516;51.612;7.510;2023-02-01T10:57:11;18.17;;;6.93;;
22697;SDS011;11516;51.612;7.510;2023-02-01T10:59:46;20.50;;;6.13;;
22697;SDS011;11516;51.612;7.510;2023-02-01T11:02:18;19.70;;;7.05;;
22697;SDS011;11516;51.612;7.510;2023-02-01T11:04:57;20.35;;;7.18;;
22697;SDS011;11516;51.612;7.510;2023-02-01T11:07:28;20.45;;;7.10;;
22697;SDS011;11516;51.612;7.510;2023-02-01T11:09:54;18.10;;;6.97;;
22697;SDS011;11516;51.612;7.510;2023-02-01T11:14:58;18.23;;;6.97;;
22697;SDS011;11516;51.612;7.510;2023-02-01T11:17:40;21.02;;;6.68;;
22697;SDS011;11516;51.612;7.510;2023-02-01T11:20:16;20.70;;;6.70;;
22697;SDS011;11516;51.612;7.510;2023-02-01T11:22:45;17.23;;;5.97;;
22697;SDS011;11516;51.612;7.510;2023-02-01T11:25:13;19.77;;;6.80;;
22697;SDS011;11516;51.612;7.510;2023-02-01T11:27:41;22.25;;;7.05;;
22697;SDS011;11516;51.612;7.510;2023-02-01T11:30:06;20.77;;;6.38;;
22697;SDS011;11516;51.612;7.510;2023-02-01T11:32:39;20.67;;;6.47;;
22697;SDS011;11516;51.612;7.510;2023-02-01T11:35:05;19.00;;;6.03;;
22697;SDS011;11516;51.612;7.510;2023-02-01T11:37:38;17.85;;;6.80;;
22697;SDS011;11516;51.612;7.510;2023-02-01T11:42:52;15.00;;;5.88;;
22697;SDS011;11516;51.612;7.510;2023-02-01T11:45:24;24.50;;;7.35;;
22697;SDS011;11516;51.612;7.510;2023-02-01T11:47:52;19.75;;;5.90;;
22697;SDS011;11516;51.612;7.510;2023-02-01T11:50:22;21.25;;;6.80;;
22697;SDS011;11516;51.612;7.510;2023-02-01T12:07:16;22.80;;;7.20;;
22697;SDS011;11516;51.612;7.510;2023-02-01T12:09:58;21.77;;;7.30;;
22697;SDS011;11516;51.612;7.510;2023-02-01T12:23:06;18.77;;;7.90;;
22697;SDS011;11516;51.612;7.510;2023-02-01T12:31:45;23.40;;;8.43;;
22697;SDS011;11516;51.612;7.510;2023-02-01T12:34:38;22.70;;;8.32;;
22697;SDS011;11516;51.612;7.510;2023-02-01T12:40:06;21.45;;;7.38;;
22697;SDS011;11516;51.612;7.510;2023-02-01T12:42:43;22.00;;;7.78;;
22697;SDS011;11516;51.612;7.510;2023-02-01T12:50:28;22.30;;;6.72;;
22697;SDS011;11516;51.612;7.510;2023-02-01T12:52:58;26.42;;;7.68;;
22697;SDS011;11516;51.612;7.510;2023-02-01T12:55:49;22.88;;;7.65;;
22697;SDS011;11516;51.612;7.510;2023-02-01T12:58:33;20.48;;;7.05;;
22697;SDS011;11516;51.612;7.510;2023-02-01T13:01:15;19.33;;;6.55;;
22697;SDS011;11516;51.612;7.510;2023-02-01T13:06:32;15.95;;;6.90;;
22697;SDS011;11516;51.612;7.510;2023-02-01T13:09:20;24.27;;;7.65;;
22697;SDS011;11516;51.612;7.510;2023-02-01T13:11:54;22.67;;;7.07;;
22697;SDS011;11516;51.612;7.510;2023-02-01T13:16:51;20.90;;;5.85;;
22697;SDS011;11516;51.612;7.510;2023-02-01T13:19:28;19.48;;;6.30;;
22697;SDS011;11516;51.612;7.510;2023-02-01T13:22:09;21.25;;;5.70;;
22697;SDS011;11516;51.612;7.510;2023-02-01T13:25:03;15.77;;;4.95;;
22697;SDS011;11516;51.612;7.510;2023-02-01T13:27:37;20.02;;;5.43;;
22697;SDS011;11516;51.612;7.510;2023-02-01T13:41:28;20.95;;;5.90;;
22697;SDS011;11516;51.612;7.510;2023-02-01T13:43:59;16.40;;;4.38;;
22697;SDS011;11516;51.612;7.510;2023-02-01T13:46:38;16.98;;;4.85;;
22697;SDS011;11516;51.612;7.510;2023-02-01T13:49:06;18.00;;;5.40;;
22697;SDS011;11516;51.612;7.510;2023-02-01T13:51:42;19.75;;;5.55;;
22697;SDS011;11516;51.612;7.510;2023-02-01T13:54:27;17.42;;;5.43;;
22697;SDS011;11516;51.612;7.510;2023-02-01T13:56:58;18.90;;;5.60;;
22697;SDS011;11516;51.612;7.510;2023-02-01T14:05:08;14.90;;;4.15;;
22697;SDS011;11516;51.612;7.510;2023-02-01T14:07:35;21.85;;;5.55;;
22697;SDS011;11516;51.612;7.510;2023-02-01T14:13:05;17.38;;;4.60;;
22697;SDS011;11516;51.612;7.510;2023-02-01T14:26:19;19.40;;;5.13;;
22697;SDS011;11516;51.612;7.510;2023-02-01T14:29:13;21.38;;;5.60;;
22697;SDS011;11516;51.612;7.510;2023-02-01T14:36:52;25.70;;;6.22;;
22697;SDS011;11516;51.612;7.510;2023-02-01T14:39:31;17.43;;;4.93;;
22697;SDS011;11516;51.612;7.510;2023-02-01T14:47:49;13.68;;;4.07;;
22697;SDS011;11516;51.612;7.510;2023-02-01T14:55:29;17.50;;;5.30;;
22697;SDS011;11516;51.612;7.510;2023-02-01T14:58:40;15.32;;;4.18;;
22697;SDS011;11516;51.612;7.510;2023-02-01T15:00:56;16.55;;;4.97;;
22697;SDS011;11516;51.612;7.510;2023-02-01T15:09:00;14.10;;;4.03;;
22697;SDS011;11516;51.612;7.510;2023-02-01T15:12:27;15.40;;;4.43;;
22697;SDS011;11516;51.612;7.510;2023-02-01T15:14:28;17.65;;;4.93;;
22697;SDS011;11516;51.612;7.510;2023-02-01T15:16:56;17.73;;;5.50;;
22697;SDS011;11516;51.612;7.510;2023-02-01T15:19:22;17.03;;;4.90;;
22697;SDS011;11516;51.612;7.510;2023-02-01T15:21:56;14.60;;;4.70;;
22697;SDS011;11516;51.612;7.510;2023-02-01T15:26:58;16.70;;;4.82;;
22697;SDS011;11516;51.612;7.510;2023-02-01T15:29:29;19.58;;;4.70;;
22697;SDS011;11516;51.612;7.510;2023-02-01T15:31:57;16.00;;;4.63;;
22697;SDS011;11516;51.612;7.510;2023-02-01T15:34:23;14.73;;;4.30;;
22697;SDS011;11516;51.612;7.510;2023-02-01T15:37:11;14.48;;;4.20;;
22697;SDS011;11516;51.612;7.510;2023-02-01T15:39:38;14.40;;;3.80;;
22697;SDS011;11516;51.612;7.510;2023-02-01T15:42:49;16.38;;;4.70;;
22697;SDS011;11516;51.612;7.510;2023-02-01T15:45:20;18.08;;;4.20;;
22697;SDS011;11516;51.612;7.510;2023-02-01T15:47:54;16.33;;;5.15;;
22697;SDS011;11516;51.612;7.510;2023-02-01T15:50:22;17.50;;;4.38;;
22697;SDS011;11516;51.612;7.510;2023-02-01T15:52:49;20.13;;;4.45;;
22697;SDS011;11516;51.612;7.510;2023-02-01T15:58:08;16.50;;;5.07;;
22697;SDS011;11516;51.612;7.510;2023-02-01T16:00:50;17.63;;;5.25;;
22697;SDS011;11516;51.612;7.510;2023-02-01T16:03:34;19.85;;;5.88;;
22697;SDS011;11516;51.612;7.510;2023-02-01T16:06:09;17.65;;;5.20;;
22697;SDS011;11516;51.612;7.510;2023-02-01T16:08:37;18.35;;;5.30;;
22697;SDS011;11516;51.612;7.510;2023-02-01T16:11:24;19.38;;;5.43;;
22697;SDS011;11516;51.612;7.510;2023-02-01T16:13:58;16.15;;;5.38;;
22697;SDS011;11516;51.612;7.510;2023-02-01T16:16:25;19.47;;;5.40;;
22697;SDS011;11516;51.612;7.510;2023-02-01T16:18:52;18.05;;;5.25;;
22697;SDS011;11516;51.612;7.510;2023-02-01T16:21:18;16.70;;;5.00;;
22697;SDS011;11516;51.612;7.510;2023-02-01T16:23:47;16.77;;;5.05;;
22697;SDS011;11516;51.612;7.510;2023-02-01T16:26:14;15.23;;;4.63;;
22697;SDS011;11516;51.612;7.510;2023-02-01T16:28:40;22.47;;;4.93;;
22697;SDS011;11516;51.612;7.510;2023-02-01T16:31:08;20.38;;;5.70;;
22697;SDS011;11516;51.612;7.510;2023-02-01T16:33:43;20.25;;;6.28;;
22697;SDS011;11516;51.612;7.510;2023-02-01T16:36:10;19.67;;;5.38;;
22697;SDS011;11516;51.612;7.510;2023-02-01T16:38:35;17.45;;;6.18;;
22697;SDS011;11516;51.612;7.510;2023-02-01T16:41:01;25.50;;;6.50;;
22697;SDS011;11516;51.612;7.510;2023-02-01T16:43:30;20.15;;;5.85;;
22697;SDS011;11516;51.612;7.510;2023-02-01T16:45:58;18.23;;;6.07;;
22697;SDS011;11516;51.612;7.510;2023-02-01T16:48:29;24.77;;;6.63;;
22697;SDS011;11516;51.612;7.510;2023-02-01T16:50:56;16.50;;;5.70;;
22697;SDS011;11516;51.612;7.510;2023-02-01T16:53:25;23.37;;;7.33;;
22697;SDS011;11516;51.612;7.510;2023-02-01T16:55:55;11.55;;;3.92;;
22697;SDS011;11516;51.612;7.510;2023-02-01T16:58:22;1.30;;;0.43;;
22697;SDS011;11516;51.612;7.510;2023-02-01T17:00:48;0.85;;;0.85;;
22697;SDS011;11516;51.612;7.510;2023-02-01T17:03:15;0.57;;;0.57;;
22697;SDS011;11516;51.612;7.510;2023-02-01T17:05:45;0.30;;;0.30;;
22697;SDS011;11516;51.612;7.510;2023-02-01T17:08:22;4.30;;;0.65;;
22697;SDS011;11516;51.612;7.510;2023-02-01T17:10:54;4.82;;;1.20;;
22697;SDS011;11516;51.612;7.510;2023-02-01T17:13:20;0.90;;;0.60;;
22697;SDS011;11516;51.612;7.510;2023-02-01T17:15:48;0.45;;;0.45;;
22697;SDS011;11516;51.612;7.510;2023-02-01T17:18:17;0.70;;;0.70;;
22697;SDS011;11516;51.612;7.510;2023-02-01T17:20:43;0.25;;;0.25;;
22697;SDS011;11516;51.612;7.510;2023-02-01T17:23:11;0.43;;;0.43;;
22697;SDS011;11516;51.612;7.510;2023-02-01T17:25:36;1.00;;;0.80;;
22697;SDS011;11516;51.612;7.510;2023-02-01T17:28:02;0.37;;;0.33;;
22697;SDS011;11516;51.612;7.510;2023-02-01T17:30:28;0.10;;;0.10;;
22697;SDS011;11516;51.612;7.510;2023-02-01T17:32:55;1.10;;;0.88;;